Time;durP1;ratioP1;P1;durP2;ratioP2;P2;SDS_P1;SDS_P2;PMS_P1;PMS_P2;Temp;Humidity;BMP_temperature;BMP_pressure;BME280_temperature;BME280_humidity;BME280_pressure;Samples;Min_cycle;Max_cycle;Signal;HPM_P1;HPM_P2
2020/12/31 00:01:54;;;;;;;10.82;6.65;;;3.00;99.90;;;;;;4967529;28;20598;-77
2020/12/31 00:04:19;;;;;;;10.15;6.40;;;3.00;99.90;;;;;;4971244;28;20049;-77
2020/12/31 00:06:45;;;;;;;10.60;6.80;;;3.10;99.90;;;;;;4972532;28;20093;-77
2020/12/31 00:09:11;;;;;;;10.30;6.45;;;3.10;99.90;;;;;;4987407;28;20107;-77
2020/12/31 00:11:37;;;;;;;11.23;6.95;;;3.10;99.90;;;;;;4962397;28;20065;-77
2020/12/31 00:14:07;;;;;;;11.35;7.15;;;3.10;99.90;;;;;;4957551;28;20832;-77
2020/12/31 00:16:36;;;;;;;11.95;7.05;;;3.10;99.90;;;;;;4978211;28;20490;-77
2020/12/31 00:19:05;;;;;;;14.18;6.97;;;3.20;99.90;;;;;;4975824;28;20034;-77
2020/12/31 00:21:31;;;;;;;10.80;6.88;;;3.20;99.90;;;;;;4981714;28;20108;-76
2020/12/31 00:23:56;;;;;;;11.93;7.30;;;3.20;99.90;;;;;;4978041;28;20041;-77
2020/12/31 00:26:22;;;;;;;11.27;6.95;;;3.30;99.90;;;;;;4977385;28;20027;-77
2020/12/31 00:28:48;;;;;;;12.75;7.00;;;3.20;99.90;;;;;;4975766;28;20161;-76
2020/12/31 00:31:14;;;;;;;10.82;6.30;;;3.10;99.90;;;;;;4971975;28;20043;-75
2020/12/31 00:33:40;;;;;;;12.52;6.53;;;3.20;99.90;;;;;;4969002;28;20049;-75
2020/12/31 00:36:05;;;;;;;13.20;7.30;;;3.20;99.90;;;;;;4973453;28;20457;-76
2020/12/31 00:38:31;;;;;;;11.38;6.47;;;3.20;99.90;;;;;;4968296;28;20772;-76
2020/12/31 00:40:58;;;;;;;11.85;6.80;;;3.10;99.90;;;;;;4970762;28;20035;-76
2020/12/31 00:43:24;;;;;;;13.95;6.82;;;3.10;99.90;;;;;;4967109;28;20125;-76
2020/12/31 00:45:51;;;;;;;10.68;6.40;;;3.00;99.90;;;;;;4967665;28;20027;-75
2020/12/31 00:48:17;;;;;;;12.18;7.03;;;3.10;99.90;;;;;;4967611;28;20101;-75
2020/12/31 00:50:42;;;;;;;11.63;6.72;;;3.10;99.90;;;;;;4974505;28;20495;-75
2020/12/31 00:53:09;;;;;;;12.50;6.90;;;3.10;99.90;;;;;;4960514;28;20645;-75
2020/12/31 00:55:36;;;;;;;11.77;7.00;;;3.20;99.90;;;;;;4950978;28;20043;-75
2020/12/31 00:58:02;;;;;;;12.07;6.90;;;3.20;99.90;;;;;;4980746;28;20030;-75
2020/12/31 01:00:33;;;;;;;13.13;7.18;;;3.10;99.90;;;;;;4978390;28;20030;-77
2020/12/31 01:03:06;;;;;;;12.57;7.22;;;3.20;99.90;;;;;;4973277;28;20071;-76
2020/12/31 01:05:32;;;;;;;10.23;6.50;;;3.20;99.90;;;;;;4975184;28;20793;-76
2020/12/31 01:07:57;;;;;;;13.35;7.50;;;3.20;99.90;;;;;;4969458;28;20039;-76
2020/12/31 01:10:23;;;;;;;11.68;7.07;;;3.20;99.90;;;;;;4973712;28;20042;-76
2020/12/31 01:12:49;;;;;;;11.90;7.13;;;3.20;99.90;;;;;;4974667;28;20042;-76
2020/12/31 01:15:15;;;;;;;12.38;7.53;;;3.20;99.90;;;;;;4976077;28;20134;-76
2020/12/31 01:17:40;;;;;;;13.52;7.68;;;3.20;99.90;;;;;;4966981;28;20117;-75
2020/12/31 01:20:07;;;;;;;13.75;7.95;;;3.20;99.90;;;;;;4988811;28;20411;-75
2020/12/31 01:22:33;;;;;;;13.80;7.80;;;3.20;99.90;;;;;;4979183;28;20041;-75
2020/12/31 01:24:59;;;;;;;10.55;6.55;;;3.20;99.90;;;;;;4970776;28;20981;-75
2020/12/31 01:27:25;;;;;;;14.35;8.18;;;3.30;99.90;;;;;;4971095;28;20038;-75
2020/12/31 01:29:51;;;;;;;13.77;7.82;;;3.30;99.90;;;;;;4975753;28;20034;-75
2020/12/31 01:32:24;;;;;;;13.38;7.82;;;3.30;99.90;;;;;;4955836;28;20491;-75
2020/12/31 01:34:50;;;;;;;11.68;7.30;;;3.30;99.90;;;;;;4960746;28;20057;-75
2020/12/31 01:37:17;;;;;;;13.50;7.05;;;3.30;99.90;;;;;;4976849;28;20173;-75
2020/12/31 01:39:44;;;;;;;13.65;7.32;;;3.40;99.90;;;;;;4976332;28;20092;-75
2020/12/31 01:42:10;;;;;;;13.18;7.75;;;3.40;99.90;;;;;;4971929;28;20115;-76
2020/12/31 01:44:36;;;;;;;12.98;7.38;;;3.50;99.90;;;;;;4975680;28;20042;-78
2020/12/31 01:47:02;;;;;;;12.15;7.15;;;3.50;99.90;;;;;;4965712;28;20086;-78
2020/12/31 01:49:34;;;;;;;13.82;7.00;;;3.50;99.90;;;;;;4973869;28;20030;-77
2020/12/31 01:52:01;;;;;;;12.65;7.72;;;3.50;99.90;;;;;;4971729;28;20031;-77
2020/12/31 01:54:28;;;;;;;12.85;7.10;;;3.50;99.90;;;;;;4965577;28;20927;-76
2020/12/31 01:56:58;;;;;;;12.05;7.38;;;3.50;99.90;;;;;;4973381;28;20149;-76
2020/12/31 01:59:25;;;;;;;12.32;7.05;;;3.40;99.90;;;;;;4973227;28;20406;-77
2020/12/31 02:01:51;;;;;;;14.60;7.50;;;3.40;99.90;;;;;;4970453;28;20407;-77
2020/12/31 02:04:18;;;;;;;11.77;7.35;;;3.40;99.90;;;;;;4979890;28;20041;-77
2020/12/31 02:06:44;;;;;;;12.55;7.45;;;3.30;99.90;;;;;;4970666;28;20106;-76
2020/12/31 02:09:11;;;;;;;11.45;6.57;;;3.30;99.90;;;;;;4973777;28;20403;-78
2020/12/31 02:11:37;;;;;;;12.40;7.75;;;3.40;99.90;;;;;;4964515;28;20041;-78
2020/12/31 02:14:03;;;;;;;12.38;7.47;;;3.40;99.90;;;;;;4952151;28;20030;-78
2020/12/31 02:16:38;;;;;;;11.95;7.20;;;3.40;99.90;;;;;;4962581;28;20919;-77
2020/12/31 02:19:22;;;;;;;11.95;7.20;;;3.40;99.90;;;;;;4963138;28;20045;-77
2020/12/31 02:21:48;;;;;;;14.10;7.72;;;3.30;99.90;;;;;;4973607;28;20073;-77
2020/12/31 02:24:14;;;;;;;14.65;8.63;;;3.40;99.90;;;;;;4974328;28;20034;-77
2020/12/31 02:26:41;;;;;;;12.40;7.50;;;3.30;99.90;;;;;;4962141;28;20044;-77
2020/12/31 02:29:09;;;;;;;14.60;8.10;;;3.20;99.90;;;;;;4978646;28;20081;-77
2020/12/31 02:31:35;;;;;;;11.63;7.40;;;3.20;99.90;;;;;;4976754;28;20092;-77
2020/12/31 02:34:01;;;;;;;14.63;8.07;;;3.30;99.90;;;;;;4964882;28;20042;-76
2020/12/31 02:36:30;;;;;;;15.45;8.30;;;3.20;99.90;;;;;;4970281;28;20076;-76
2020/12/31 02:39:03;;;;;;;13.70;8.00;;;3.20;99.90;;;;;;4974321;28;20538;-76
2020/12/31 02:41:29;;;;;;;13.77;8.10;;;3.10;99.90;;;;;;4971976;28;20038;-76
2020/12/31 02:43:54;;;;;;;12.68;7.50;;;3.20;99.90;;;;;;4979276;28;20035;-76
2020/12/31 02:46:21;;;;;;;12.77;8.18;;;3.20;99.90;;;;;;4978278;28;20823;-76
2020/12/31 02:48:48;;;;;;;14.90;7.80;;;3.20;99.90;;;;;;4972917;28;20026;-76
2020/12/31 02:51:14;;;;;;;12.07;8.00;;;3.20;99.90;;;;;;4972193;28;20061;-76
2020/12/31 02:53:40;;;;;;;11.38;7.35;;;3.20;99.90;;;;;;4989223;28;20042;-76
2020/12/31 02:56:10;;;;;;;11.98;7.25;;;3.20;99.90;;;;;;4968750;28;20038;-76
2020/12/31 02:58:36;;;;;;;13.52;8.50;;;3.20;99.90;;;;;;4965918;28;20488;-76
2020/12/31 03:01:02;;;;;;;11.15;7.43;;;3.30;99.90;;;;;;4969054;28;20831;-76
2020/12/31 03:03:28;;;;;;;13.43;7.88;;;3.20;99.90;;;;;;4966069;28;20038;-76
2020/12/31 03:05:54;;;;;;;14.98;8.23;;;3.20;99.90;;;;;;4976797;28;20027;-76
2020/12/31 03:08:19;;;;;;;12.45;7.43;;;3.20;99.90;;;;;;4978198;28;20734;-76
2020/12/31 03:10:45;;;;;;;12.88;7.85;;;3.20;99.90;;;;;;4976855;28;20066;-76
2020/12/31 03:13:11;;;;;;;13.98;8.20;;;3.20;99.90;;;;;;4974852;28;20126;-76
2020/12/31 03:15:36;;;;;;;12.38;7.25;;;3.10;99.90;;;;;;4977998;28;20061;-75
2020/12/31 03:18:02;;;;;;;13.35;7.65;;;3.10;99.90;;;;;;4972984;28;20046;-76
2020/12/31 03:20:28;;;;;;;12.80;7.78;;;3.10;99.90;;;;;;4972909;28;20045;-76
2020/12/31 03:22:53;;;;;;;13.23;8.07;;;3.10;99.90;;;;;;4969369;28;20134;-76
2020/12/31 03:25:19;;;;;;;11.40;7.47;;;3.10;99.90;;;;;;4976946;28;20054;-76
2020/12/31 03:27:45;;;;;;;13.10;7.70;;;3.10;99.90;;;;;;4971775;28;20030;-76
2020/12/31 03:30:10;;;;;;;13.73;7.95;;;3.00;99.90;;;;;;4969568;28;20027;-76
2020/12/31 03:32:36;;;;;;;15.07;7.68;;;3.00;99.90;;;;;;4980033;28;20561;-76
2020/12/31 03:35:02;;;;;;;13.65;7.28;;;3.00;99.90;;;;;;4966190;28;20073;-76
2020/12/31 03:37:28;;;;;;;11.60;7.68;;;3.00;99.90;;;;;;4964192;28;20035;-76
2020/12/31 03:39:53;;;;;;;12.60;7.82;;;3.00;99.90;;;;;;4979529;28;20074;-76
2020/12/31 03:42:19;;;;;;;13.68;8.18;;;3.00;99.90;;;;;;4970850;28;20038;-77
2020/12/31 03:44:45;;;;;;;13.32;7.78;;;3.10;99.90;;;;;;4991172;28;20038;-77
2020/12/31 03:47:11;;;;;;;13.82;7.20;;;3.10;99.90;;;;;;4966889;28;20033;-77
2020/12/31 03:49:37;;;;;;;14.73;8.43;;;3.10;99.90;;;;;;4967669;28;20465;-77
2020/12/31 03:52:02;;;;;;;13.60;8.18;;;3.10;99.90;;;;;;4969083;28;20034;-76
2020/12/31 03:54:28;;;;;;;11.48;7.70;;;3.00;99.90;;;;;;4969204;28;20663;-76
2020/12/31 03:56:54;;;;;;;14.35;8.68;;;3.00;99.90;;;;;;4967175;28;20031;-77
2020/12/31 03:59:19;;;;;;;12.85;8.05;;;2.90;99.90;;;;;;4969441;28;20057;-76
2020/12/31 04:01:45;;;;;;;12.90;8.05;;;2.80;99.90;;;;;;4966915;28;20570;-77
2020/12/31 04:04:11;;;;;;;12.70;7.82;;;2.80;99.90;;;;;;4975824;28;20215;-76
2020/12/31 04:06:37;;;;;;;16.70;7.90;;;2.80;99.90;;;;;;4969198;28;20502;-76
2020/12/31 04:09:03;;;;;;;15.60;8.88;;;2.80;99.90;;;;;;4980781;28;20159;-76
2020/12/31 04:11:29;;;;;;;13.60;7.95;;;2.90;99.90;;;;;;4974848;28;21035;-76
2020/12/31 04:13:54;;;;;;;13.43;8.60;;;2.90;99.90;;;;;;4981140;28;20030;-76
2020/12/31 04:16:20;;;;;;;12.77;7.50;;;2.90;99.90;;;;;;4980256;28;20790;-76
2020/12/31 04:18:46;;;;;;;13.45;8.15;;;2.90;99.90;;;;;;4972174;28;20395;-76
2020/12/31 04:21:11;;;;;;;12.70;7.32;;;2.80;99.90;;;;;;4974668;28;20687;-76
2020/12/31 04:23:39;;;;;;;14.30;8.57;;;2.80;99.90;;;;;;4981143;28;20121;-75
2020/12/31 04:26:04;;;;;;;13.02;7.43;;;2.80;99.90;;;;;;4968323;28;20593;-75
2020/12/31 04:28:30;;;;;;;14.93;8.48;;;2.80;99.90;;;;;;4978011;28;20030;-75
2020/12/31 04:30:56;;;;;;;14.27;8.35;;;2.80;99.90;;;;;;4979278;28;20477;-75
2020/12/31 04:33:21;;;;;;;16.20;8.57;;;2.80;99.90;;;;;;4982049;28;20026;-74
2020/12/31 04:35:47;;;;;;;13.15;7.78;;;2.70;99.90;;;;;;4975387;28;20636;-74
2020/12/31 04:38:13;;;;;;;16.98;7.97;;;2.70;99.90;;;;;;4982247;28;20442;-74
2020/12/31 04:40:43;;;;;;;15.95;8.50;;;2.60;99.90;;;;;;4980819;28;20038;-72
2020/12/31 04:43:09;;;;;;;12.63;7.72;;;2.70;99.90;;;;;;4980633;28;20034;-72
2020/12/31 04:45:38;;;;;;;55.00;25.65;;;2.70;99.90;;;;;;4981214;28;20085;-74
2020/12/31 04:48:30;;;;;;;15.00;8.38;;;2.70;99.90;;;;;;4979925;28;20705;-75
2020/12/31 04:50:58;;;;;;;17.35;9.38;;;2.70;99.90;;;;;;4981665;28;20137;-75
2020/12/31 04:53:25;;;;;;;15.70;8.07;;;2.70;99.90;;;;;;4982179;28;20038;-75
2020/12/31 04:55:51;;;;;;;14.23;8.18;;;2.60;99.90;;;;;;4979081;28;20065;-74
2020/12/31 04:58:17;;;;;;;14.23;7.15;;;2.60;99.90;;;;;;4978212;28;20510;-75
2020/12/31 05:00:43;;;;;;;11.95;7.05;;;2.50;99.90;;;;;;4992739;28;20034;-72
2020/12/31 05:03:10;;;;;;;12.48;7.47;;;2.40;99.90;;;;;;4979455;28;20042;-72
2020/12/31 05:05:37;;;;;;;21.05;11.85;;;2.40;99.90;;;;;;4975555;28;20038;-77
2020/12/31 05:08:04;;;;;;;13.73;7.40;;;2.30;99.90;;;;;;4974691;28;20058;-76
2020/12/31 05:10:30;;;;;;;13.48;7.80;;;2.30;99.90;;;;;;4975261;28;20509;-77
2020/12/31 05:13:00;;;;;;;14.38;7.68;;;2.30;99.90;;;;;;4976756;28;20089;-76
2020/12/31 05:15:46;;;;;;;17.73;7.70;;;2.20;99.90;;;;;;4970468;28;20079;-76
2020/12/31 05:18:25;;;;;;;15.15;7.60;;;2.20;99.90;;;;;;4961918;28;20057;-76
2020/12/31 05:20:56;;;;;;;12.43;7.18;;;2.10;99.90;;;;;;4967511;28;20038;-76
2020/12/31 05:23:29;;;;;;;12.27;7.60;;;2.10;99.90;;;;;;4975088;28;20073;-77
2020/12/31 05:25:56;;;;;;;16.52;8.02;;;2.00;99.90;;;;;;4970552;28;20031;-77
2020/12/31 05:28:33;;;;;;;15.30;8.43;;;2.00;99.90;;;;;;4973687;28;20200;-77
2020/12/31 05:31:00;;;;;;;14.25;8.18;;;2.00;99.90;;;;;;4975672;28;20030;-77
2020/12/31 05:33:34;;;;;;;13.52;8.18;;;1.90;99.90;;;;;;4975408;28;20554;-78
2020/12/31 05:36:19;;;;;;;16.58;8.95;;;1.90;99.90;;;;;;4977392;28;20042;-77
2020/12/31 05:38:45;;;;;;;16.25;8.55;;;1.80;99.90;;;;;;4976387;28;20034;-77
2020/12/31 05:41:11;;;;;;;13.40;8.05;;;1.80;99.90;;;;;;4986906;28;20790;-77
2020/12/31 05:43:39;;;;;;;108.57;49.65;;;1.80;99.90;;;;;;4953554;28;20125;-76
2020/12/31 05:46:14;;;;;;;31.13;14.25;;;1.80;99.90;;;;;;4960433;28;20050;-75
2020/12/31 05:48:39;;;;;;;;;;;1.90;99.90;;;;;;4980655;28;20042;-75
2020/12/31 05:51:32;;;;;;;14.52;8.30;;;1.90;99.90;;;;;;4970438;28;19914;-74
2020/12/31 05:54:11;;;;;;;15.32;8.38;;;1.80;99.90;;;;;;4982025;28;20037;-74
2020/12/31 05:56:44;;;;;;;14.30;8.07;;;1.90;99.90;;;;;;4962878;28;20045;-75
2020/12/31 05:59:27;;;;;;;14.88;8.07;;;1.80;99.90;;;;;;4973179;28;20160;-75
2020/12/31 06:02:03;;;;;;;17.35;8.65;;;1.80;99.90;;;;;;4990194;28;20899;-76
2020/12/31 06:04:29;;;;;;;18.75;9.68;;;1.70;99.90;;;;;;4980994;28;20046;-75
2020/12/31 06:07:01;;;;;;;29.02;14.25;;;1.60;99.90;;;;;;4974973;28;20037;-76
2020/12/31 06:09:35;;;;;;;16.63;9.45;;;1.60;99.90;;;;;;4965688;28;20077;-74
2020/12/31 06:12:02;;;;;;;13.95;8.32;;;1.50;99.90;;;;;;4977682;28;20042;-75
2020/12/31 06:14:32;;;;;;;17.90;8.32;;;1.50;99.90;;;;;;4980537;28;20046;-75
2020/12/31 06:17:00;;;;;;;20.27;9.75;;;1.40;99.90;;;;;;4962422;28;20034;-75
2020/12/31 06:19:29;;;;;;;18.00;8.80;;;1.40;99.90;;;;;;4948305;28;20043;-75
2020/12/31 06:22:05;;;;;;;17.92;9.68;;;1.40;99.90;;;;;;4961150;28;20026;-74
2020/12/31 06:24:37;;;;;;;16.10;8.75;;;1.40;99.90;;;;;;4960254;28;20031;-74
2020/12/31 06:27:11;;;;;;;17.98;9.48;;;1.40;99.90;;;;;;4960827;28;20058;-75
2020/12/31 06:29:49;;;;;;;15.05;8.55;;;1.30;99.90;;;;;;4967014;28;20034;-75
2020/12/31 06:32:31;;;;;;;17.08;8.70;;;1.20;99.90;;;;;;4971237;28;20141;-75
2020/12/31 06:35:05;;;;;;;17.00;8.65;;;1.20;99.90;;;;;;4968577;28;20034;-75
2020/12/31 06:37:31;;;;;;;17.27;8.77;;;1.30;99.90;;;;;;4971983;28;20030;-80
2020/12/31 06:40:29;;;;;;;24.88;11.13;;;1.20;99.90;;;;;;4965240;28;20027;-75
2020/12/31 06:43:04;;;;;;;17.00;9.20;;;1.20;99.90;;;;;;4962741;28;20073;-73
2020/12/31 06:45:32;;;;;;;15.60;8.20;;;1.10;99.90;;;;;;4968318;28;20045;-74
2020/12/31 06:47:58;;;;;;;17.52;8.82;;;1.10;99.90;;;;;;4965102;28;20030;-73
2020/12/31 06:50:53;;;;;;;15.95;8.70;;;1.10;99.90;;;;;;4962612;28;20085;-74
2020/12/31 06:53:35;;;;;;;16.23;8.70;;;1.20;99.90;;;;;;4960959;28;20137;-74
2020/12/31 06:56:12;;;;;;;21.85;8.80;;;1.20;99.90;;;;;;4967774;28;20043;-74
2020/12/31 06:58:39;;;;;;;16.85;8.38;;;1.20;99.90;;;;;;4971923;28;20528;-74
2020/12/31 07:01:24;;;;;;;13.60;8.25;;;1.10;99.90;;;;;;4971645;28;20034;-74
2020/12/31 07:03:50;;;;;;;17.17;8.90;;;1.10;99.90;;;;;;4959512;28;20042;-73
2020/12/31 07:06:22;;;;;;;15.30;8.30;;;1.10;99.90;;;;;;4972817;28;20019;-73
2020/12/31 07:08:49;;;;;;;17.50;9.07;;;1.10;99.90;;;;;;4960105;28;20062;-74
2020/12/31 07:11:26;;;;;;;17.67;8.88;;;1.10;99.90;;;;;;4959914;28;20402;-73
2020/12/31 07:13:52;;;;;;;17.73;8.95;;;1.20;99.90;;;;;;4961700;28;20035;-75
2020/12/31 07:16:40;;;;;;;15.25;9.02;;;1.20;99.90;;;;;;4958869;28;20882;-74
2020/12/31 07:19:06;;;;;;;21.40;9.50;;;1.20;99.90;;;;;;4965555;28;20038;-73
2020/12/31 07:21:35;;;;;;;16.30;9.50;;;1.20;99.90;;;;;;4967142;28;20030;-75
2020/12/31 07:24:23;;;;;;;17.55;8.80;;;1.30;99.90;;;;;;4971927;28;20030;-74
2020/12/31 07:26:50;;;;;;;19.27;9.85;;;1.30;99.90;;;;;;4964137;28;20030;-74
2020/12/31 07:29:30;;;;;;;17.67;9.40;;;1.40;99.90;;;;;;4961058;28;20030;-74
2020/12/31 07:31:56;;;;;;;23.33;11.10;;;1.40;99.90;;;;;;4961426;28;20043;-74
2020/12/31 07:34:27;;;;;;;21.17;10.25;;;1.50;99.90;;;;;;4964587;28;20030;-74
2020/12/31 07:37:00;;;;;;;19.63;9.85;;;1.60;99.90;;;;;;4962652;28;20030;-74
2020/12/31 07:39:26;;;;;;;19.38;9.73;;;1.70;99.90;;;;;;4959801;28;20046;-74
2020/12/31 07:42:11;;;;;;;17.02;9.77;;;1.70;99.90;;;;;;4966269;28;20064;-74
2020/12/31 07:44:59;;;;;;;17.13;9.80;;;1.70;99.90;;;;;;4963180;28;20039;-74
2020/12/31 07:47:25;;;;;;;15.85;8.43;;;1.80;99.90;;;;;;4971406;28;20065;-74
2020/12/31 07:49:52;;;;;;;20.20;9.07;;;1.80;99.90;;;;;;4967007;28;20039;-74
2020/12/31 07:52:19;;;;;;;16.27;9.55;;;1.90;99.90;;;;;;4971525;28;20041;-75
2020/12/31 07:54:45;;;;;;;17.02;9.77;;;1.90;99.90;;;;;;4977908;28;20050;-74
2020/12/31 07:57:13;;;;;;;18.02;9.43;;;1.90;99.90;;;;;;4962247;28;20043;-70
2020/12/31 07:59:46;;;;;;;14.43;8.55;;;1.90;99.90;;;;;;4969309;28;20037;-74
2020/12/31 08:02:15;;;;;;;15.57;8.95;;;2.00;99.90;;;;;;4963429;28;20107;-75
2020/12/31 08:04:41;;;;;;;15.73;9.00;;;2.00;99.90;;;;;;4971749;28;20034;-74
2020/12/31 08:07:17;;;;;;;15.38;8.88;;;2.10;99.90;;;;;;4971574;28;20035;-73
2020/12/31 08:09:46;;;;;;;14.07;8.57;;;2.10;99.90;;;;;;4967661;28;20035;-75
2020/12/31 08:12:11;;;;;;;16.63;8.57;;;2.10;99.90;;;;;;4945118;28;20049;-75
2020/12/31 08:14:46;;;;;;;15.52;8.52;;;2.10;99.90;;;;;;4959539;28;20047;-76
2020/12/31 08:17:13;;;;;;;16.77;8.63;;;2.10;99.90;;;;;;4963462;28;20027;-75
2020/12/31 08:19:40;;;;;;;13.63;7.90;;;2.10;99.90;;;;;;4971838;28;20062;-75
2020/12/31 08:22:38;;;;;;;14.48;7.97;;;2.10;99.90;;;;;;4961389;28;20031;-76
2020/12/31 08:25:18;;;;;;;13.05;7.68;;;2.20;99.90;;;;;;4968122;28;20478;-76
2020/12/31 08:27:45;;;;;;;14.75;7.55;;;2.20;99.90;;;;;;4968390;28;20045;-76
2020/12/31 08:30:12;;;;;;;12.57;7.30;;;2.30;99.90;;;;;;4966427;28;20503;-76
2020/12/31 08:32:50;;;;;;;15.63;8.52;;;2.30;99.90;;;;;;4968939;28;20034;-76
2020/12/31 08:35:31;;;;;;;13.85;7.60;;;2.50;99.90;;;;;;4969470;28;20046;-73
2020/12/31 08:38:12;;;;;;;14.15;7.07;;;2.50;99.90;;;;;;4962298;28;20039;-75
2020/12/31 08:40:57;;;;;;;14.65;7.90;;;2.60;99.90;;;;;;4963080;28;20061;-78
2020/12/31 08:43:39;;;;;;;8.57;5.18;;;2.60;99.90;;;;;;4972937;28;20030;-76
2020/12/31 08:46:07;;;;;;;29.08;12.95;;;2.50;99.90;;;;;;4969558;28;20045;-74
2020/12/31 08:48:34;;;;;;;12.32;7.30;;;2.50;99.90;;;;;;4960566;28;20479;-75
2020/12/31 08:51:07;;;;;;;12.45;7.28;;;2.60;99.90;;;;;;4968501;28;20455;-76
2020/12/31 08:53:47;;;;;;;10.93;6.45;;;2.60;99.90;;;;;;4961856;28;20138;-76
2020/12/31 08:56:13;;;;;;;10.38;6.78;;;2.70;99.90;;;;;;4974804;28;20031;-76
2020/12/31 08:58:39;;;;;;;14.40;6.72;;;2.70;99.90;;;;;;4971507;28;20155;-75
2020/12/31 09:01:05;;;;;;;10.73;6.80;;;2.70;99.90;;;;;;4962494;28;20046;-75
2020/12/31 09:03:31;;;;;;;12.63;6.60;;;2.70;99.90;;;;;;4961183;28;20053;-75
2020/12/31 09:05:58;;;;;;;10.13;6.07;;;2.70;99.90;;;;;;4977634;28;20379;-75
2020/12/31 09:08:25;;;;;;;12.90;6.75;;;2.70;99.90;;;;;;4962627;28;20031;-75
2020/12/31 09:11:05;;;;;;;9.95;6.00;;;2.80;99.90;;;;;;4968656;28;20145;-75
2020/12/31 09:13:38;;;;;;;9.82;6.20;;;2.90;99.90;;;;;;4980799;28;20070;-74
2020/12/31 09:16:14;;;;;;;9.90;6.07;;;3.10;99.90;;;;;;4974663;28;20038;-76
2020/12/31 09:18:41;;;;;;;10.43;6.65;;;3.00;99.90;;;;;;4963819;28;20049;-74
2020/12/31 09:21:07;;;;;;;10.35;6.50;;;3.10;99.90;;;;;;4962274;28;20042;-75
2020/12/31 09:23:34;;;;;;;12.02;6.50;;;3.10;99.90;;;;;;4966640;28;20176;-75
2020/12/31 09:26:00;;;;;;;9.07;5.90;;;3.00;99.90;;;;;;4975053;28;20247;-75
2020/12/31 09:28:25;;;;;;;8.80;6.03;;;3.00;99.90;;;;;;4962658;28;20578;-74
2020/12/31 09:30:52;;;;;;;9.07;6.20;;;3.10;99.90;;;;;;4961929;28;20170;-75
2020/12/31 09:33:20;;;;;;;9.73;5.95;;;3.20;99.90;;;;;;4968176;28;20042;-74
2020/12/31 09:35:46;;;;;;;9.50;5.53;;;3.20;99.90;;;;;;4966339;28;20093;-75
2020/12/31 09:38:14;;;;;;;11.32;6.68;;;3.30;99.90;;;;;;4967294;28;20038;-76
2020/12/31 09:40:40;;;;;;;8.88;5.90;;;3.30;99.90;;;;;;4963661;28;20053;-77
2020/12/31 09:43:06;;;;;;;10.35;5.95;;;3.40;99.90;;;;;;4972688;28;20030;-76
2020/12/31 09:45:32;;;;;;;9.65;5.63;;;3.40;99.90;;;;;;4967935;28;20122;-76
2020/12/31 09:48:02;;;;;;;9.00;5.45;;;3.30;99.90;;;;;;4972472;28;20402;-76
2020/12/31 09:50:28;;;;;;;10.70;6.10;;;3.40;99.90;;;;;;4969784;28;20953;-76
2020/12/31 09:52:54;;;;;;;9.57;5.97;;;3.40;99.90;;;;;;4968277;28;20072;-76
2020/12/31 09:55:20;;;;;;;9.05;5.53;;;3.40;99.90;;;;;;4967708;28;20056;-76
2020/12/31 09:57:46;;;;;;;11.10;5.88;;;3.40;99.90;;;;;;4966788;28;20034;-76
2020/12/31 10:00:12;;;;;;;8.75;5.80;;;3.40;99.90;;;;;;4963708;28;20043;-76
2020/12/31 10:02:37;;;;;;;8.52;5.85;;;3.40;99.90;;;;;;4971356;28;20057;-76
2020/12/31 10:05:04;;;;;;;9.40;5.13;;;3.50;99.90;;;;;;4969979;28;20171;-76
2020/12/31 10:07:30;;;;;;;11.95;5.30;;;3.50;99.90;;;;;;4964393;28;20046;-76
2020/12/31 10:09:55;;;;;;;11.13;4.93;;;3.50;99.90;;;;;;4965281;28;20023;-76
2020/12/31 10:12:21;;;;;;;12.70;6.03;;;3.50;99.90;;;;;;4960980;28;20030;-77
2020/12/31 10:14:48;;;;;;;9.25;5.22;;;3.50;99.90;;;;;;4972682;28;20030;-77
2020/12/31 10:17:13;;;;;;;7.20;4.97;;;3.50;99.90;;;;;;4971326;28;20550;-77
2020/12/31 10:19:39;;;;;;;8.15;5.30;;;3.50;99.90;;;;;;4963944;28;20247;-73
2020/12/31 10:22:05;;;;;;;9.25;5.30;;;3.60;99.90;;;;;;4954572;28;20056;-76
2020/12/31 10:24:31;;;;;;;10.10;5.00;;;3.80;99.90;;;;;;4970319;28;20043;-76
2020/12/31 10:26:57;;;;;;;7.50;5.18;;;3.70;99.90;;;;;;4983369;28;20027;-75
2020/12/31 10:29:23;;;;;;;10.20;5.20;;;3.70;99.90;;;;;;4968378;28;20035;-75
2020/12/31 10:31:50;;;;;;;10.55;5.28;;;3.70;99.90;;;;;;4959788;28;20038;-77
2020/12/31 10:34:15;;;;;;;11.25;5.90;;;3.80;99.90;;;;;;4969614;28;20047;-75
2020/12/31 10:36:41;;;;;;;9.88;5.53;;;3.80;99.90;;;;;;4964409;28;20045;-75
2020/12/31 10:39:07;;;;;;;9.38;5.65;;;3.80;99.90;;;;;;4971633;28;20041;-75
2020/12/31 10:41:33;;;;;;;9.63;5.20;;;3.90;99.90;;;;;;4969043;28;20038;-76
2020/12/31 10:43:59;;;;;;;9.38;5.20;;;4.00;99.90;;;;;;4954253;28;20093;-78
2020/12/31 10:46:26;;;;;;;10.77;5.00;;;4.00;99.90;;;;;;4957531;28;20038;-78
2020/12/31 10:48:52;;;;;;;15.60;7.15;;;4.00;99.90;;;;;;4963973;28;20038;-76
2020/12/31 10:51:18;;;;;;;9.00;4.65;;;4.00;99.90;;;;;;4975053;28;20065;-76
2020/12/31 10:53:44;;;;;;;7.78;5.03;;;4.20;99.90;;;;;;4968887;28;20122;-76
2020/12/31 10:56:10;;;;;;;8.15;5.10;;;4.20;99.90;;;;;;4964436;28;20141;-76
2020/12/31 10:58:37;;;;;;;8.38;5.30;;;4.20;99.90;;;;;;4963447;28;20070;-77
2020/12/31 11:01:03;;;;;;;6.95;4.90;;;4.30;99.90;;;;;;4972091;28;20030;-76
2020/12/31 11:03:29;;;;;;;13.27;8.15;;;4.40;99.90;;;;;;4975967;28;20117;-76
2020/12/31 11:05:55;;;;;;;8.18;5.55;;;4.60;99.90;;;;;;4968072;28;20564;-76
2020/12/31 11:08:21;;;;;;;7.00;4.90;;;4.70;99.90;;;;;;4966885;28;20038;-75
2020/12/31 11:10:48;;;;;;;12.50;7.30;;;4.60;99.90;;;;;;4969821;28;20037;-74
2020/12/31 11:13:14;;;;;;;8.15;4.82;;;4.60;99.90;;;;;;4950312;28;20129;-75
2020/12/31 11:15:40;;;;;;;7.85;4.53;;;4.70;99.90;;;;;;4963540;28;20050;-74
2020/12/31 11:18:06;;;;;;;8.63;5.20;;;4.60;99.90;;;;;;4966173;28;20038;-74
2020/12/31 11:20:32;;;;;;;8.27;5.32;;;4.60;99.90;;;;;;4969610;28;20703;-75
2020/12/31 11:22:57;;;;;;;7.47;4.90;;;4.80;99.90;;;;;;4968413;28;20043;-75
2020/12/31 11:25:23;;;;;;;9.50;5.53;;;4.80;99.90;;;;;;4969872;28;20026;-74
2020/12/31 11:27:49;;;;;;;8.48;5.35;;;4.70;99.90;;;;;;4967451;28;20425;-73
2020/12/31 11:30:14;;;;;;;7.85;4.82;;;4.60;99.90;;;;;;4969539;28;20557;-73
2020/12/31 11:32:42;;;;;;;8.63;5.35;;;4.60;99.90;;;;;;4971752;28;20038;-74
2020/12/31 11:35:08;;;;;;;8.57;5.30;;;4.70;99.90;;;;;;4965173;28;20496;-74
2020/12/31 11:37:34;;;;;;;9.45;5.10;;;4.70;99.90;;;;;;4966277;28;20845;-74
2020/12/31 11:40:01;;;;;;;8.95;5.47;;;4.70;99.90;;;;;;4965059;28;20045;-74
2020/12/31 11:42:34;;;;;;;7.05;5.20;;;4.70;99.90;;;;;;4967040;28;20566;-73
2020/12/31 11:45:09;;;;;;;10.00;5.15;;;4.80;99.90;;;;;;4965129;28;20035;-75
2020/12/31 11:47:35;;;;;;;10.15;5.68;;;4.90;99.90;;;;;;4966023;28;20865;-74
2020/12/31 11:50:00;;;;;;;9.20;5.07;;;5.00;99.90;;;;;;4969494;28;20030;-74
2020/12/31 11:52:28;;;;;;;7.93;5.03;;;5.30;99.90;;;;;;4971537;28;20034;-74
2020/12/31 11:54:53;;;;;;;7.60;4.95;;;5.40;99.90;;;;;;4965882;28;20066;-75
2020/12/31 11:57:19;;;;;;;7.72;4.82;;;5.50;99.90;;;;;;4968218;28;20113;-74
2020/12/31 11:59:45;;;;;;;7.47;5.22;;;5.70;99.90;;;;;;4945848;28;20038;-75
2020/12/31 12:02:11;;;;;;;8.38;5.72;;;5.80;99.90;;;;;;4964186;28;20031;-73
2020/12/31 12:04:37;;;;;;;11.13;6.90;;;5.60;99.90;;;;;;4966503;28;20503;-73
2020/12/31 12:07:03;;;;;;;7.07;4.70;;;5.70;99.90;;;;;;4961224;28;20050;-72
2020/12/31 12:09:28;;;;;;;10.70;4.88;;;5.80;99.90;;;;;;4966089;28;20583;-73
2020/12/31 12:11:54;;;;;;;7.68;4.85;;;5.90;99.90;;;;;;4972610;28;20045;-73
2020/12/31 12:14:20;;;;;;;7.72;5.15;;;6.00;99.90;;;;;;4972165;28;20085;-73
2020/12/31 12:16:49;;;;;;;9.18;4.93;;;5.90;99.90;;;;;;4967653;28;20027;-73
2020/12/31 12:19:16;;;;;;;10.00;5.50;;;5.80;99.90;;;;;;4964241;28;20031;-72
2020/12/31 12:21:42;;;;;;;7.88;5.00;;;5.90;99.90;;;;;;4961145;28;20706;-73
2020/12/31 12:24:08;;;;;;;7.50;5.35;;;5.90;99.90;;;;;;4964929;28;20035;-72
2020/12/31 12:26:38;;;;;;;9.63;5.40;;;5.80;99.90;;;;;;4950685;28;20145;-73
2020/12/31 12:29:04;;;;;;;9.55;5.57;;;5.60;99.90;;;;;;4987110;28;20570;-75
2020/12/31 12:31:34;;;;;;;7.28;5.30;;;5.60;99.90;;;;;;4970745;28;20090;-70
2020/12/31 12:34:00;;;;;;;11.20;5.50;;;5.60;99.90;;;;;;4962771;28;20062;-72
2020/12/31 12:36:26;;;;;;;10.50;5.20;;;5.50;99.90;;;;;;4965691;28;20031;-72
2020/12/31 12:38:52;;;;;;;8.80;5.38;;;5.50;99.90;;;;;;4961534;28;20065;-72
2020/12/31 12:41:18;;;;;;;9.05;5.45;;;5.70;99.90;;;;;;4962361;28;20397;-72
2020/12/31 12:43:44;;;;;;;8.70;5.28;;;5.90;99.90;;;;;;4962588;28;20043;-75
2020/12/31 12:46:14;;;;;;;9.30;5.97;;;6.10;99.90;;;;;;4981777;28;20039;-72
2020/12/31 12:48:40;;;;;;;8.32;5.50;;;6.20;99.90;;;;;;4977476;28;20034;-75
2020/12/31 12:51:05;;;;;;;7.20;5.18;;;6.10;99.90;;;;;;4966303;28;20033;-75
2020/12/31 12:53:31;;;;;;;8.05;5.25;;;5.80;99.90;;;;;;4977303;28;20065;-74
2020/12/31 12:55:57;;;;;;;8.40;5.28;;;5.80;99.90;;;;;;4968281;28;20041;-75